Pushkinskiye Gory, Russia
Current Conditions -  °F | °C
As of 10:50 PM on Sunday 25 Jan 2015 (Local Time) from EETU Reporting Station
Moderate Snow Moderate Snow  
Wind Chill: 27°   Ceiling: 1500
Heat Index: 27°   Visibility: 1.4mi
Dew Point: 25°   Wind: 0mph
Humidity: 93%   Direction: NA
Pressure: 30.12"   Gusts: NA
Location:  57.02°N, 28.93°E
Report Text: EETU 251950Z 00000KT 2300 SN BKN015 OVC040 M03/M04 Q1020
Loading
Personal Weather Stations






























Interactive Weather Map New forecast layout! Learn more

10-Day Weather Forecast

Advertisements
Track Severe Weather on mobile